sensor_id;sensor_type;location;lat;lon;timestamp;P1;durP1;ratioP1;P2;durP2;ratioP2
43664;SDS011;29263;48.172;11.484;2022-10-16T10:17:28;6.07;;;1.88;;
43664;SDS011;29263;48.172;11.484;2022-10-16T10:36:43;4.10;;;0.88;;
43664;SDS011;29263;48.172;11.484;2022-10-16T10:39:29;3.00;;;0.90;;
43664;SDS011;29263;48.172;11.484;2022-10-16T10:55:20;1.08;;;0.85;;
43664;SDS011;29263;48.172;11.484;2022-10-16T11:00:51;0.77;;;0.60;;
43664;SDS011;29263;48.172;11.484;2022-10-16T11:08:55;0.88;;;0.60;;
43664;SDS011;29263;48.172;11.484;2022-10-16T11:11:46;1.15;;;0.60;;
43664;SDS011;29263;48.172;11.484;2022-10-16T11:14:19;1.58;;;0.68;;
43664;SDS011;29263;48.172;11.484;2022-10-16T11:16:58;1.20;;;0.80;;
43664;SDS011;29263;48.172;11.484;2022-10-16T11:22:17;1.73;;;1.33;;
43664;SDS011;29263;48.172;11.484;2022-10-16T11:24:51;0.70;;;0.40;;
43664;SDS011;29263;48.172;11.484;2022-10-16T11:27:40;0.77;;;0.47;;
43664;SDS011;29263;48.172;11.484;2022-10-16T11:30:24;1.15;;;0.40;;
43664;SDS011;29263;48.172;11.484;2022-10-16T11:35:25;0.70;;;0.43;;
43664;SDS011;29263;48.172;11.484;2022-10-16T11:38:00;2.00;;;0.60;;
43664;SDS011;29263;48.172;11.484;2022-10-16T11:40:32;1.33;;;0.57;;
43664;SDS011;29263;48.172;11.484;2022-10-16T11:43:16;0.60;;;0.47;;
43664;SDS011;29263;48.172;11.484;2022-10-16T11:45:54;0.50;;;0.50;;
43664;SDS011;29263;48.172;11.484;2022-10-16T11:48:27;0.93;;;0.70;;
43664;SDS011;29263;48.172;11.484;2022-10-16T11:53:38;1.15;;;0.60;;
43664;SDS011;29263;48.172;11.484;2022-10-16T11:56:16;2.30;;;0.60;;
43664;SDS011;29263;48.172;11.484;2022-10-16T11:58:49;1.40;;;0.60;;
43664;SDS011;29263;48.172;11.484;2022-10-16T12:01:38;1.05;;;0.70;;
43664;SDS011;29263;48.172;11.484;2022-10-16T12:06:49;0.98;;;0.52;;
43664;SDS011;29263;48.172;11.484;2022-10-16T12:09:38;1.10;;;0.95;;
43664;SDS011;29263;48.172;11.484;2022-10-16T12:12:04;0.80;;;0.70;;
43664;SDS011;29263;48.172;11.484;2022-10-16T12:14:48;1.48;;;1.15;;
43664;SDS011;29263;48.172;11.484;2022-10-16T12:17:26;1.23;;;0.60;;
43664;SDS011;29263;48.172;11.484;2022-10-16T12:20:01;0.70;;;0.63;;
43664;SDS011;29263;48.172;11.484;2022-10-16T12:22:47;0.52;;;0.50;;
43664;SDS011;29263;48.172;11.484;2022-10-16T12:28:04;0.50;;;0.20;;
43664;SDS011;29263;48.172;11.484;2022-10-16T12:30:33;1.80;;;0.13;;
43664;SDS011;29263;48.172;11.484;2022-10-16T12:33:02;1.63;;;0.40;;
43664;SDS011;29263;48.172;11.484;2022-10-16T12:35:31;0.52;;;0.30;;
43664;SDS011;29263;48.172;11.484;2022-10-16T12:38:06;0.55;;;0.30;;
43664;SDS011;29263;48.172;11.484;2022-10-16T12:40:54;2.72;;;0.40;;
43664;SDS011;29263;48.172;11.484;2022-10-16T12:46:01;1.07;;;0.30;;
43664;SDS011;29263;48.172;11.484;2022-10-16T12:48:48;0.40;;;0.30;;
43664;SDS011;29263;48.172;11.484;2022-10-16T12:51:25;0.77;;;0.40;;
43664;SDS011;29263;48.172;11.484;2022-10-16T13:02:49;0.30;;;0.30;;
43664;SDS011;29263;48.172;11.484;2022-10-16T13:08:16;0.60;;;0.22;;
43664;SDS011;29263;48.172;11.484;2022-10-16T13:24:43;0.45;;;0.20;;
43664;SDS011;29263;48.172;11.484;2022-10-16T13:27:15;0.30;;;0.20;;
43664;SDS011;29263;48.172;11.484;2022-10-16T13:29:52;1.75;;;0.38;;
43664;SDS011;29263;48.172;11.484;2022-10-16T13:32:24;0.30;;;0.30;;
43664;SDS011;29263;48.172;11.484;2022-10-16T13:34:52;0.63;;;0.30;;
43664;SDS011;29263;48.172;11.484;2022-10-16T13:37:20;0.40;;;0.30;;
43664;SDS011;29263;48.172;11.484;2022-10-16T13:39:48;0.20;;;0.20;;
43664;SDS011;29263;48.172;11.484;2022-10-16T13:42:20;0.30;;;0.20;;
43664;SDS011;29263;48.172;11.484;2022-10-16T13:44:54;1.42;;;0.30;;
43664;SDS011;29263;48.172;11.484;2022-10-16T13:47:22;0.35;;;0.22;;
43664;SDS011;29263;48.172;11.484;2022-10-16T13:52:39;0.98;;;0.40;;
43664;SDS011;29263;48.172;11.484;2022-10-16T13:55:13;0.82;;;0.30;;
43664;SDS011;29263;48.172;11.484;2022-10-16T13:57:40;1.27;;;0.30;;
43664;SDS011;29263;48.172;11.484;2022-10-16T14:00:27;0.20;;;0.20;;
43664;SDS011;29263;48.172;11.484;2022-10-16T14:03:11;0.77;;;0.20;;
43664;SDS011;29263;48.172;11.484;2022-10-16T14:05:49;1.90;;;0.30;;
43664;SDS011;29263;48.172;11.484;2022-10-16T14:08:16;0.73;;;0.30;;
43664;SDS011;29263;48.172;11.484;2022-10-16T14:10:46;2.45;;;0.20;;
43664;SDS011;29263;48.172;11.484;2022-10-16T14:13:16;0.45;;;0.30;;
43664;SDS011;29263;48.172;11.484;2022-10-16T14:15:46;0.55;;;0.40;;
43664;SDS011;29263;48.172;11.484;2022-10-16T14:18:18;0.30;;;0.20;;
43664;SDS011;29263;48.172;11.484;2022-10-16T14:20:47;0.43;;;0.30;;
43664;SDS011;29263;48.172;11.484;2022-10-16T14:23:28;0.68;;;0.35;;
43664;SDS011;29263;48.172;11.484;2022-10-16T14:26:14;1.30;;;0.20;;
43664;SDS011;29263;48.172;11.484;2022-10-16T14:28:42;0.30;;;0.30;;
43664;SDS011;29263;48.172;11.484;2022-10-16T14:31:28;1.40;;;0.38;;
43664;SDS011;29263;48.172;11.484;2022-10-16T14:33:57;1.38;;;0.30;;
43664;SDS011;29263;48.172;11.484;2022-10-16T14:36:24;0.45;;;0.28;;
43664;SDS011;29263;48.172;11.484;2022-10-16T14:38:59;0.40;;;0.28;;
43664;SDS011;29263;48.172;11.484;2022-10-16T14:41:30;2.33;;;0.40;;
43664;SDS011;29263;48.172;11.484;2022-10-16T14:44:01;1.52;;;0.50;;
43664;SDS011;29263;48.172;11.484;2022-10-16T14:46:33;0.35;;;0.30;;
43664;SDS011;29263;48.172;11.484;2022-10-16T14:49:05;1.02;;;0.40;;
43664;SDS011;29263;48.172;11.484;2022-10-16T14:51:45;0.30;;;0.30;;
43664;SDS011;29263;48.172;11.484;2022-10-16T14:54:12;1.30;;;0.20;;
43664;SDS011;29263;48.172;11.484;2022-10-16T14:56:54;0.80;;;0.38;;
43664;SDS011;29263;48.172;11.484;2022-10-16T14:59:24;2.10;;;0.30;;
43664;SDS011;29263;48.172;11.484;2022-10-16T15:02:18;0.60;;;0.40;;
43664;SDS011;29263;48.172;11.484;2022-10-16T15:04:57;1.20;;;0.30;;
43664;SDS011;29263;48.172;11.484;2022-10-16T15:07:24;2.67;;;0.38;;
43664;SDS011;29263;48.172;11.484;2022-10-16T15:09:50;2.28;;;0.28;;
43664;SDS011;29263;48.172;11.484;2022-10-16T15:12:16;0.25;;;0.25;;
43664;SDS011;29263;48.172;11.484;2022-10-16T15:14:42;1.95;;;0.30;;
43664;SDS011;29263;48.172;11.484;2022-10-16T15:17:10;1.02;;;0.50;;
43664;SDS011;29263;48.172;11.484;2022-10-16T15:19:36;1.60;;;0.20;;
43664;SDS011;29263;48.172;11.484;2022-10-16T15:22:02;0.98;;;0.43;;
43664;SDS011;29263;48.172;11.484;2022-10-16T15:24:27;0.60;;;0.40;;
43664;SDS011;29263;48.172;11.484;2022-10-16T15:26:53;0.50;;;0.40;;
43664;SDS011;29263;48.172;11.484;2022-10-16T15:29:19;0.77;;;0.40;;
43664;SDS011;29263;48.172;11.484;2022-10-16T15:31:44;0.50;;;0.30;;
43664;SDS011;29263;48.172;11.484;2022-10-16T15:34:12;0.95;;;0.40;;
43664;SDS011;29263;48.172;11.484;2022-10-16T15:36:38;1.17;;;0.47;;
43664;SDS011;29263;48.172;11.484;2022-10-16T15:39:24;1.13;;;0.55;;
43664;SDS011;29263;48.172;11.484;2022-10-16T15:42:28;0.90;;;0.50;;
